Time;durP1;ratioP1;P1;durP2;ratioP2;P2;SDS_P1;SDS_P2;PMS_P1;PMS_P2;Temp;Humidity;BMP_temperature;BMP_pressure;BME280_temperature;BME280_humidity;BME280_pressure;Samples;Min_cycle;Max_cycle;Signal;HPM_P1;HPM_P2
2023/03/24 00:01:14;;;;;;;24.63;13.77;;;307.60;2304.00;;;;;;5051264;28;20119;-77
2023/03/24 00:03:40;;;;;;;20.75;13.02;;;307.60;2304.00;;;;;;5044653;28;20028;-77
2023/03/24 00:06:08;;;;;;;16.92;12.77;;;307.70;2304.00;;;;;;5047053;28;20033;-77
2023/03/24 00:08:35;;;;;;;18.38;12.25;;;307.80;2304.00;;;;;;5044411;28;20012;-77
2023/03/24 00:11:08;;;;;;;20.98;13.43;;;307.80;2304.00;;;;;;5046090;28;20506;-77
2023/03/24 00:13:37;;;;;;;17.73;12.32;;;307.80;2304.00;;;;;;5051910;28;20032;-77
2023/03/24 00:16:13;;;;;;;21.02;13.95;;;307.70;2304.00;;;;;;5050630;28;20029;-77
2023/03/24 00:18:39;;;;;;;;;;;307.40;2304.00;;;;;;5052139;28;20155;-77
2023/03/24 00:21:07;;;;;;;18.40;12.47;;;307.30;2304.00;;;;;;5047373;28;20428;-77
2023/03/24 00:23:34;;;;;;;19.63;13.32;;;282.40;2278.40;;;;;;5051609;28;20028;-77
2023/03/24 00:26:13;;;;;;;18.55;13.23;;;307.30;2304.00;;;;;;5043551;28;20029;-77
2023/03/24 00:28:41;;;;;;;22.33;12.90;;;282.10;2278.40;;;;;;5048668;28;20116;-77
2023/03/24 00:31:08;;;;;;;24.55;13.27;;;282.00;2278.40;;;;;;5055299;28;20131;-77
2023/03/24 00:33:35;;;;;;;18.50;12.45;;;282.20;2278.40;;;;;;5052461;28;20048;-77
2023/03/24 00:36:04;;;;;;;19.45;13.52;;;282.30;2278.40;;;;;;5054231;28;20478;-77
2023/03/24 00:38:30;;;;;;;20.05;13.95;;;282.30;2278.40;;;;;;5050089;28;20017;-77
2023/03/24 00:40:57;;;;;;;22.73;14.65;;;282.20;2278.40;;;;;;5051193;28;20021;-76
2023/03/24 00:43:23;;;;;;;24.35;14.35;;;281.80;2278.40;;;;;;5054773;28;20017;-77
2023/03/24 00:45:51;;;;;;;20.98;13.77;;;281.60;2278.40;;;;;;5047616;28;20475;-77
2023/03/24 00:48:18;;;;;;;22.48;14.88;;;281.70;2278.40;;;;;;5043080;28;20021;-77
2023/03/24 00:50:46;;;;;;;25.88;14.57;;;282.00;2278.40;;;;;;5054078;28;20169;-77
2023/03/24 00:53:14;;;;;;;23.50;13.95;;;282.10;2278.40;;;;;;5045588;28;20493;-77
2023/03/24 00:55:41;;;;;;;16.88;12.20;;;282.10;2278.40;;;;;;5046293;28;20033;-77
2023/03/24 00:58:07;;;;;;;17.90;13.00;;;282.30;2278.40;;;;;;5054040;28;20482;-77
2023/03/24 01:00:34;;;;;;;20.05;13.48;;;282.30;2278.40;;;;;;5047803;28;20048;-77
2023/03/24 01:03:02;;;;;;;20.27;13.57;;;282.30;2278.40;;;;;;5054046;28;20060;-77
2023/03/24 01:05:29;;;;;;;22.35;13.25;;;282.10;2278.40;;;;;;5055362;28;20019;-77
2023/03/24 01:07:57;;;;;;;20.60;13.82;;;282.00;2278.40;;;;;;5045753;28;20903;-77
2023/03/24 01:10:25;;;;;;;21.75;14.35;;;282.20;2278.40;;;;;;5055770;28;20025;-77
2023/03/24 01:12:53;;;;;;;20.00;13.25;;;282.30;2278.40;;;;;;5055279;28;20025;-77
2023/03/24 01:15:23;;;;;;;20.67;13.77;;;282.30;2278.40;;;;;;5047240;28;20071;-77
2023/03/24 01:17:51;;;;;;;19.67;14.30;;;282.10;2278.40;;;;;;5053708;28;20049;-77
2023/03/24 01:20:18;;;;;;;22.55;13.82;;;282.10;2278.40;;;;;;5047473;28;20029;-76
2023/03/24 01:22:45;;;;;;;21.45;13.68;;;282.20;2278.40;;;;;;5051973;28;20152;-77
2023/03/24 01:25:15;;;;;;;22.23;13.63;;;282.10;2278.40;;;;;;5054753;28;20017;-77
2023/03/24 01:27:42;;;;;;;18.92;13.30;;;282.20;2278.40;;;;;;5052709;28;20033;-77
2023/03/24 01:30:11;;;;;;;21.60;13.30;;;282.20;2278.40;;;;;;5054529;28;20032;-77
2023/03/24 01:32:37;;;;;;;21.85;14.48;;;282.20;2278.40;;;;;;5053331;28;20028;-77
2023/03/24 01:35:03;;;;;;;23.38;14.85;;;282.10;2278.40;;;;;;5049219;28;20029;-77
2023/03/24 01:37:29;;;;;;;21.00;14.77;;;282.20;2278.40;;;;;;5054406;28;20406;-77
2023/03/24 01:39:55;;;;;;;20.48;13.38;;;282.00;2278.40;;;;;;5043471;28;20017;-77
2023/03/24 01:42:23;;;;;;;18.52;13.30;;;282.00;2278.40;;;;;;5037380;28;20025;-77
2023/03/24 01:44:53;;;;;;;23.67;13.70;;;282.10;2278.40;;;;;;5048771;28;20028;-77
2023/03/24 01:47:19;;;;;;;22.30;13.95;;;282.20;2278.40;;;;;;5039660;28;20025;-77
2023/03/24 01:49:58;;;;;;;20.13;13.25;;;282.10;2278.40;;;;;;5050740;28;20132;-76
2023/03/24 01:52:28;;;;;;;26.02;13.68;;;282.10;2278.40;;;;;;5054354;28;20032;-77
2023/03/24 01:55:00;;;;;;;26.02;14.65;;;256.90;2252.80;;;;;;5046508;28;20431;-77
2023/03/24 01:57:32;;;;;;;22.75;13.15;;;256.70;2252.80;;;;;;5051732;28;20017;-77
2023/03/24 02:00:03;;;;;;;21.35;13.20;;;256.50;2252.80;;;;;;5045368;28;20033;-78
2023/03/24 02:02:33;;;;;;;24.88;13.55;;;256.60;2252.80;;;;;;5041625;28;20042;-78
2023/03/24 02:05:03;;;;;;;20.52;12.55;;;256.80;2252.80;;;;;;5035243;28;20464;-80
2023/03/24 02:07:38;;;;;;;19.17;11.73;;;256.90;2252.80;;;;;;5039087;28;20123;-77
2023/03/24 02:10:08;;;;;;;22.38;14.30;;;256.70;2252.80;;;;;;5054427;28;20021;-78
2023/03/24 02:12:34;;;;;;;21.63;13.38;;;256.00;2252.80;;;;;;5033441;28;20025;-77
2023/03/24 02:15:01;;;;;;;22.10;13.30;;;231.20;2252.80;;;;;;5046563;28;20025;-77
2023/03/24 02:17:55;;;;;;;21.33;13.20;;;231.20;2252.80;;;;;;5041196;28;20044;-77
2023/03/24 02:20:43;;;;;;;20.83;13.18;;;231.00;2252.80;;;;;;5036031;28;20026;-77
2023/03/24 02:23:24;;;;;;;22.55;14.85;;;230.80;2252.80;;;;;;5034592;28;20033;-76
2023/03/24 02:26:27;;;;;;;21.92;13.27;;;230.80;2252.80;;;;;;5034722;28;20096;-77
2023/03/24 02:28:59;;;;;;;18.83;13.00;;;230.90;2252.80;;;;;;5034398;28;20038;-77
2023/03/24 02:32:05;;;;;;;21.10;13.68;;;230.90;2252.80;;;;;;5037171;28;20021;-78
2023/03/24 02:35:09;;;;;;;23.25;13.80;;;230.80;2252.80;;;;;;4954816;28;20030;-77
2023/03/24 02:37:53;;;;;;;22.85;13.45;;;230.80;2252.80;;;;;;4973605;28;20408;-77
2023/03/24 02:40:45;;;;;;;25.67;15.60;;;230.70;2252.80;;;;;;4957163;28;20031;-78
2023/03/24 02:43:25;;;;;;;22.83;13.40;;;230.70;2252.80;;;;;;4972695;28;20019;-77
2023/03/24 02:46:00;;;;;;;22.65;13.27;;;230.80;2252.80;;;;;;4957157;28;20027;-77
2023/03/24 02:48:34;;;;;;;19.88;13.25;;;230.70;2252.80;;;;;;4973318;28;20489;-78
2023/03/24 02:51:33;;;;;;;24.90;14.98;;;230.80;2252.80;;;;;;4973065;28;20046;-77
2023/03/24 02:54:11;;;;;;;23.95;13.60;;;230.90;2252.80;;;;;;4973135;28;20031;-78
2023/03/24 02:56:46;;;;;;;26.58;14.73;;;230.80;2252.80;;;;;;4956940;28;20045;-77
2023/03/24 02:59:28;;;;;;;23.90;14.52;;;230.60;2252.80;;;;;;4972798;28;20178;-77
2023/03/24 03:02:05;;;;;;;22.30;13.75;;;230.60;2252.80;;;;;;4973180;28;20138;-77
2023/03/24 03:04:48;;;;;;;22.45;14.63;;;230.50;2252.80;;;;;;4956619;28;20034;-77
2023/03/24 03:07:20;;;;;;;21.60;13.43;;;230.60;2252.80;;;;;;4957452;28;20412;-77
2023/03/24 03:10:02;;;;;;;24.27;14.10;;;230.60;2252.80;;;;;;4978683;28;20036;-77
2023/03/24 03:12:33;;;;;;;23.52;14.18;;;230.50;2252.80;;;;;;5046028;28;20021;-77
2023/03/24 03:15:15;;;;;;;26.02;15.07;;;205.70;2252.80;;;;;;5025745;28;20034;-78
2023/03/24 03:17:51;;;;;;;24.92;14.13;;;205.60;2252.80;;;;;;5037163;28;20041;-77
2023/03/24 03:20:22;;;;;;;19.40;10.63;;;205.40;2252.80;;;;;;5019007;28;20030;-77
2023/03/24 03:23:03;;;;;;;24.00;14.73;;;205.20;2252.80;;;;;;5033825;28;20100;-76
2023/03/24 03:25:35;;;;;;;25.02;14.57;;;205.20;2252.80;;;;;;5026833;28;20108;-77
2023/03/24 03:28:03;;;;;;;25.77;13.55;;;205.10;2252.80;;;;;;5027015;28;20021;-77
2023/03/24 03:30:39;;;;;;;24.00;14.80;;;205.10;2252.80;;;;;;5025077;28;20543;-77
2023/03/24 03:33:23;;;;;;;23.05;13.98;;;205.10;2252.80;;;;;;5032248;28;20502;-77
2023/03/24 03:36:14;;;;;;;25.25;14.95;;;205.10;2252.80;;;;;;5017102;28;20053;-78
2023/03/24 03:39:02;;;;;;;25.20;15.23;;;205.00;2252.80;;;;;;5002595;28;20072;-77
2023/03/24 03:41:28;;;;;;;21.90;14.27;;;205.30;2252.80;;;;;;5025739;28;20083;-78
2023/03/24 03:43:54;;;;;;;26.88;16.17;;;205.50;2252.80;;;;;;5023689;28;20108;-77
2023/03/24 03:46:20;;;;;;;24.15;14.70;;;205.60;2252.80;;;;;;5018693;28;20028;-78
2023/03/24 03:48:46;;;;;;;24.13;16.67;;;205.70;2252.80;;;;;;5021720;28;20128;-78
2023/03/24 03:51:13;;;;;;;28.20;16.02;;;205.70;2252.80;;;;;;5025107;28;20130;-77
2023/03/24 03:53:58;;;;;;;25.85;15.52;;;205.60;2252.80;;;;;;5012866;28;20034;-78
2023/03/24 03:56:26;;;;;;;27.80;16.23;;;205.60;2252.80;;;;;;5031618;28;20057;-77
2023/03/24 03:58:52;;;;;;;27.77;16.58;;;205.50;2252.80;;;;;;5037318;28;20022;-77
2023/03/24 04:01:22;;;;;;;23.77;14.65;;;205.70;2252.80;;;;;;5029472;28;20116;-77
2023/03/24 04:03:48;;;;;;;24.08;15.40;;;205.70;2252.80;;;;;;5029715;28;20060;-77
2023/03/24 04:06:32;;;;;;;23.38;15.75;;;230.50;2252.80;;;;;;5035906;28;20017;-77
2023/03/24 04:09:23;;;;;;;32.95;14.73;;;230.60;2252.80;;;;;;5033360;28;20021;-77
2023/03/24 04:12:06;;;;;;;22.75;15.23;;;230.60;2252.80;;;;;;5028785;28;20576;-77
2023/03/24 04:15:01;;;;;;;28.08;14.98;;;230.40;2252.80;;;;;;5025703;28;20021;-77
2023/03/24 04:18:05;;;;;;;23.45;13.80;;;205.70;2252.80;;;;;;4976040;28;20046;-77
2023/03/24 04:21:11;;;;;;;24.45;14.52;;;205.70;2252.80;;;;;;4940316;29;20118;-78
2023/03/24 04:23:49;;;;;;;24.35;14.98;;;205.40;2252.80;;;;;;4918552;29;20091;-77
2023/03/24 04:26:26;;;;;;;29.10;15.85;;;205.30;2252.80;;;;;;4918526;29;20063;-77
2023/03/24 04:29:11;;;;;;;22.92;15.55;;;205.40;2252.80;;;;;;4918438;29;20062;-78
2023/03/24 04:32:01;;;;;;;26.67;14.40;;;205.40;2252.80;;;;;;4918350;29;20024;-78
2023/03/24 04:34:38;;;;;;;30.15;16.27;;;205.40;2252.80;;;;;;4918757;29;20368;-77
2023/03/24 04:37:04;;;;;;;26.02;15.63;;;205.50;2252.80;;;;;;4914352;29;20191;-78
2023/03/24 04:39:34;;;;;;;32.55;17.08;;;205.50;2252.80;;;;;;4917935;29;20122;-77
2023/03/24 04:42:07;;;;;;;33.05;14.70;;;205.60;2252.80;;;;;;4902319;29;20043;-77
2023/03/24 04:44:33;;;;;;;22.35;14.18;;;205.70;2252.80;;;;;;4902041;29;20553;-77
2023/03/24 04:47:01;;;;;;;21.83;14.40;;;230.40;2252.80;;;;;;4918122;29;20036;-77
2023/03/24 04:49:27;;;;;;;23.42;14.85;;;230.50;2252.80;;;;;;4917422;29;20092;-77
2023/03/24 04:51:53;;;;;;;28.88;15.80;;;230.50;2252.80;;;;;;4917784;29;20411;-77
2023/03/24 04:54:21;;;;;;;26.55;15.23;;;230.50;2252.80;;;;;;4934100;29;20490;-77
2023/03/24 04:56:52;;;;;;;24.80;16.38;;;230.50;2252.80;;;;;;4980458;28;20054;-77
2023/03/24 04:59:18;;;;;;;28.48;16.70;;;230.50;2252.80;;;;;;4977990;28;20138;-76
2023/03/24 05:01:50;;;;;;;22.80;15.40;;;230.50;2252.80;;;;;;5033841;28;20029;-77
2023/03/24 05:04:18;;;;;;;43.13;19.67;;;230.70;2252.80;;;;;;5022798;28;20025;-77
2023/03/24 05:06:48;;;;;;;23.88;15.25;;;230.80;2252.80;;;;;;5034975;28;20064;-77
2023/03/24 05:09:16;;;;;;;23.42;15.00;;;230.80;2252.80;;;;;;5030310;28;20487;-77
2023/03/24 05:11:43;;;;;;;29.50;16.38;;;230.90;2252.80;;;;;;5023862;28;20026;-77
2023/03/24 05:14:09;;;;;;;26.27;15.70;;;230.90;2252.80;;;;;;5028036;28;20100;-77
2023/03/24 05:16:35;;;;;;;26.98;16.38;;;231.00;2252.80;;;;;;5016370;28;20498;-77
2023/03/24 05:19:01;;;;;;;30.85;17.38;;;231.10;2252.80;;;;;;5049692;28;20040;-77
2023/03/24 05:21:27;;;;;;;29.38;16.85;;;231.20;2252.80;;;;;;5054145;28;20040;-78
2023/03/24 05:23:53;;;;;;;29.88;18.35;;;231.30;2252.80;;;;;;5028442;28;20025;-76
2023/03/24 05:26:19;;;;;;;30.20;18.02;;;256.00;2252.80;;;;;;5045952;28;20036;-75
2023/03/24 05:28:44;;;;;;;27.40;16.95;;;256.00;2252.80;;;;;;5050277;28;20521;-75
2023/03/24 05:31:10;;;;;;;25.77;17.05;;;256.20;2252.80;;;;;;5047293;28;20102;-75
2023/03/24 05:33:36;;;;;;;29.67;17.48;;;256.30;2252.80;;;;;;5035368;28;20021;-78
2023/03/24 05:36:02;;;;;;;;;;;256.40;2252.80;;;;;;5035798;28;20103;-76
2023/03/24 05:38:29;;;;;;;29.25;15.80;;;256.50;2252.80;;;;;;5052341;28;19904;-77
2023/03/24 05:40:59;;;;;;;23.52;15.07;;;256.50;2252.80;;;;;;5041690;28;20033;-76
2023/03/24 05:43:25;;;;;;;31.10;16.52;;;256.70;2252.80;;;;;;5034071;28;20104;-75
2023/03/24 05:45:51;;;;;;;28.13;17.02;;;256.80;2252.80;;;;;;5046907;28;20031;-76
2023/03/24 05:48:17;;;;;;;31.00;17.20;;;256.90;2252.80;;;;;;5040360;28;20025;-77
2023/03/24 05:50:42;;;;;;;25.20;16.08;;;281.60;2278.40;;;;;;5055084;28;20467;-76
2023/03/24 05:53:08;;;;;;;24.38;16.08;;;281.60;2278.40;;;;;;5040409;28;20036;-77
2023/03/24 05:55:34;;;;;;;28.55;17.30;;;281.70;2278.40;;;;;;5040585;28;20065;-77
2023/03/24 05:58:03;;;;;;;30.13;16.08;;;281.90;2278.40;;;;;;5033740;28;20044;-76
2023/03/24 06:00:30;;;;;;;28.10;17.45;;;281.90;2278.40;;;;;;5048083;28;20542;-75
2023/03/24 06:02:57;;;;;;;25.67;16.17;;;282.00;2278.40;;;;;;5040199;28;20025;-77
2023/03/24 06:05:23;;;;;;;26.25;15.48;;;282.10;2278.40;;;;;;5041132;28;20517;-76
2023/03/24 06:07:49;;;;;;;26.20;16.55;;;282.10;2278.40;;;;;;5032806;28;20091;-76
2023/03/24 06:10:17;;;;;;;28.80;16.25;;;282.20;2278.40;;;;;;5043810;28;20402;-76
2023/03/24 06:12:44;;;;;;;25.40;16.67;;;282.30;2278.40;;;;;;5052698;28;20021;-76
2023/03/24 06:15:10;;;;;;;30.85;16.65;;;282.50;2278.40;;;;;;5043650;28;20399;-76
2023/03/24 06:17:36;;;;;;;28.92;17.27;;;307.20;2304.00;;;;;;5047113;28;20183;-76
2023/03/24 06:20:09;;;;;;;24.65;15.38;;;307.30;2304.00;;;;;;5053048;28;20075;-76
2023/03/24 06:22:36;;;;;;;25.63;16.48;;;308.00;2304.00;;;;;;5054258;28;20029;-76
2023/03/24 06:25:03;;;;;;;27.30;17.48;;;307.60;2304.00;;;;;;5044276;28;20030;-77
2023/03/24 06:27:34;;;;;;;28.23;17.58;;;307.70;2304.00;;;;;;5043427;28;20123;-76
2023/03/24 06:30:00;;;;;;;27.88;18.50;;;307.80;2304.00;;;;;;5051115;28;20051;-76
2023/03/24 06:32:26;;;;;;;26.88;15.50;;;308.00;2304.00;;;;;;5051842;28;20387;-75
2023/03/24 06:34:52;;;;;;;31.25;17.05;;;308.10;2304.00;;;;;;5051961;28;20108;-74
2023/03/24 06:37:20;;;;;;;27.75;16.83;;;332.80;2329.60;;;;;;5046353;28;20040;-76
2023/03/24 06:39:46;;;;;;;29.80;15.13;;;332.90;2329.60;;;;;;5050757;28;20033;-76
2023/03/24 06:42:12;;;;;;;43.47;16.80;;;333.10;2329.60;;;;;;5051714;28;20528;-77
2023/03/24 06:44:37;;;;;;;25.33;16.88;;;333.20;2329.60;;;;;;5038622;28;20021;-77
2023/03/24 06:47:03;;;;;;;23.90;15.52;;;333.40;2329.60;;;;;;5052435;28;20079;-76
2023/03/24 06:49:29;;;;;;;24.20;15.60;;;333.60;2329.60;;;;;;5048715;28;20040;-76
2023/03/24 06:51:55;;;;;;;21.92;15.10;;;333.70;2329.60;;;;;;5054007;28;20028;-75
2023/03/24 06:54:21;;;;;;;27.25;15.52;;;333.70;2329.60;;;;;;5053679;28;20025;-76
2023/03/24 06:56:47;;;;;;;22.52;15.35;;;333.70;2329.60;;;;;;5051056;28;20071;-76
2023/03/24 06:59:13;;;;;;;25.02;15.23;;;358.50;2329.60;;;;;;5052341;28;20025;-79
2023/03/24 07:01:38;;;;;;;28.52;16.17;;;358.70;2329.60;;;;;;5045966;28;20395;-76
2023/03/24 07:04:05;;;;;;;25.30;15.02;;;358.80;2329.60;;;;;;5049296;28;20043;-75
2023/03/24 07:06:32;;;;;;;24.98;13.55;;;358.90;2329.60;;;;;;5053035;28;20044;-77
2023/03/24 07:08:58;;;;;;;21.98;14.95;;;358.90;2329.60;;;;;;5051142;28;20033;-75
2023/03/24 07:11:24;;;;;;;21.75;14.95;;;359.20;2329.60;;;;;;5052947;28;20486;-74
2023/03/24 07:13:50;;;;;;;22.88;13.68;;;359.30;2329.60;;;;;;5053246;28;20025;-76
2023/03/24 07:16:16;;;;;;;26.67;14.55;;;384.00;2329.60;;;;;;5052718;28;20033;-75
2023/03/24 07:18:41;;;;;;;26.98;15.55;;;384.20;2329.60;;;;;;5052390;28;20048;-76
2023/03/24 07:21:07;;;;;;;18.88;13.27;;;384.30;2329.60;;;;;;5051304;28;20035;-78
2023/03/24 07:23:34;;;;;;;22.40;14.35;;;384.40;2329.60;;;;;;5051510;28;20017;-78
2023/03/24 07:26:00;;;;;;;20.42;14.13;;;384.50;2329.60;;;;;;5050606;28;20024;-77
2023/03/24 07:28:26;;;;;;;17.58;12.32;;;384.60;2329.60;;;;;;5051118;28;20027;-78
2023/03/24 07:30:51;;;;;;;23.98;12.43;;;384.60;2329.60;;;;;;5043713;28;20498;-79
2023/03/24 07:33:18;;;;;;;20.02;12.88;;;384.70;2329.60;;;;;;5046795;28;20028;-79
2023/03/24 07:35:44;;;;;;;18.40;12.85;;;384.90;2329.60;;;;;;5051102;28;20395;-79
2023/03/24 07:38:10;;;;;;;24.15;13.15;;;409.70;2355.20;;;;;;5052580;28;20025;-78
2023/03/24 07:40:36;;;;;;;20.02;12.35;;;409.80;2355.20;;;;;;5052786;28;20509;-81
2023/03/24 07:43:04;;;;;;;18.05;12.70;;;409.90;2355.20;;;;;;5052325;28;20075;-78
2023/03/24 07:45:31;;;;;;;21.83;14.13;;;410.00;2355.20;;;;;;5043974;28;20022;-78
2023/03/24 07:48:00;;;;;;;22.60;12.43;;;410.10;2355.20;;;;;;5052445;28;20021;-78
2023/03/24 07:50:27;;;;;;;20.17;13.32;;;410.20;2355.20;;;;;;5051565;28;20021;-82
2023/03/24 07:52:53;;;;;;;19.52;13.05;;;410.20;2355.20;;;;;;5051743;28;20491;-80
2023/03/24 07:55:19;;;;;;;22.85;13.68;;;410.20;2355.20;;;;;;5047575;28;20074;-79
2023/03/24 07:57:46;;;;;;;20.63;13.60;;;410.20;2355.20;;;;;;5052233;28;20378;-85
2023/03/24 08:00:20;;;;;;;28.70;13.00;;;410.40;2355.20;;;;;;5038772;28;20029;-78
2023/03/24 08:02:50;;;;;;;19.90;12.43;;;435.20;2355.20;;;;;;5035327;28;20033;-77
2023/03/24 08:05:18;;;;;;;21.17;11.73;;;435.40;2355.20;;;;;;5052020;28;20096;-77
2023/03/24 08:07:52;;;;;;;19.58;12.07;;;435.50;2355.20;;;;;;5052650;28;20021;-77
2023/03/24 08:10:20;;;;;;;18.00;11.25;;;435.50;2355.20;;;;;;5050027;28;20032;-75
2023/03/24 08:12:47;;;;;;;20.25;12.00;;;435.60;2355.20;;;;;;5052234;28;20092;-75
2023/03/24 08:15:13;;;;;;;18.13;12.30;;;435.60;2329.60;;;;;;5043571;28;20537;-74
2023/03/24 08:17:39;;;;;;;16.60;11.80;;;435.90;2304.00;;;;;;5043504;28;20177;-73
2023/03/24 08:20:08;;;;;;;16.13;11.32;;;435.80;2355.20;;;;;;5051714;28;20025;-72
2023/03/24 08:22:35;;;;;;;15.95;10.85;;;435.90;2355.20;;;;;;5051509;28;20087;-72
2023/03/24 08:25:01;;;;;;;16.08;10.95;;;435.90;2201.60;;;;;;5046822;28;20021;-72
2023/03/24 08:27:27;;;;;;;18.77;11.30;;;435.90;2252.80;;;;;;5051136;28;20032;-72
2023/03/24 08:29:52;;;;;;;16.05;10.65;;;436.10;2176.00;;;;;;5052473;28;20032;-72
2023/03/24 08:32:18;;;;;;;15.65;11.20;;;436.10;2176.00;;;;;;5049606;28;20025;-72
2023/03/24 08:34:44;;;;;;;17.48;10.35;;;436.10;2304.00;;;;;;5043278;28;20036;-74
2023/03/24 08:37:10;;;;;;;16.95;10.80;;;460.80;2380.80;;;;;;5050033;28;20071;-76
2023/03/24 08:39:36;;;;;;;13.85;10.10;;;460.90;2278.40;;;;;;5051714;28;20100;-76
2023/03/24 08:42:02;;;;;;;17.23;10.18;;;461.00;2201.60;;;;;;5050206;28;20477;-77
2023/03/24 08:44:28;;;;;;;16.35;9.65;;;461.00;2073.60;;;;;;5047624;28;20526;-77
2023/03/24 08:46:54;;;;;;;14.07;10.13;;;461.10;2022.40;;;;;;5042868;28;20085;-77
2023/03/24 08:49:20;;;;;;;17.00;10.27;;;461.10;2022.40;;;;;;5053786;28;20037;-77
2023/03/24 08:51:46;;;;;;;17.58;9.98;;;461.10;2048.00;;;;;;5054113;28;20025;-77
2023/03/24 08:54:12;;;;;;;16.80;9.20;;;461.20;2099.20;;;;;;5048823;28;20084;-77
2023/03/24 08:56:38;;;;;;;13.70;9.43;;;461.20;2099.20;;;;;;5055357;28;20040;-76
2023/03/24 08:59:05;;;;;;;18.55;9.48;;;461.40;1971.20;;;;;;5046267;28;20034;-77
2023/03/24 09:01:32;;;;;;;18.95;10.45;;;461.50;2022.40;;;;;;5052243;28;20047;-77
2023/03/24 09:03:58;;;;;;;19.67;10.55;;;461.50;2048.00;;;;;;5054034;28;20027;-76
2023/03/24 09:06:26;;;;;;;47.28;12.43;;;461.60;2022.40;;;;;;5044595;28;20390;-77
2023/03/24 09:08:52;;;;;;;12.52;9.00;;;461.70;1868.80;;;;;;5051517;28;20382;-74
2023/03/24 09:11:19;;;;;;;14.65;9.60;;;486.40;1843.20;;;;;;5055419;28;20029;-75
2023/03/24 09:13:46;;;;;;;15.65;9.45;;;486.50;1868.80;;;;;;5055135;28;20017;-76
2023/03/24 09:16:12;;;;;;;14.40;8.23;;;486.60;1817.60;;;;;;5048905;28;20037;-76
2023/03/24 09:18:37;;;;;;;18.73;9.43;;;486.70;1817.60;;;;;;5046816;28;20394;-76
2023/03/24 09:21:04;;;;;;;20.80;9.10;;;486.80;1792.00;;;;;;5048918;28;20037;-75
2023/03/24 09:35:07;;;;;;;20.17;9.75;;;487.00;1740.80;;;;;;5151004;27;20382;-77
2023/03/24 09:37:33;;;;;;;16.55;9.50;;;512.90;1612.80;;;;;;5150708;27;20023;-77
2023/03/24 09:40:00;;;;;;;22.35;8.80;;;512.90;1664.00;;;;;;5135215;27;20106;-77
2023/03/24 09:42:31;;;;;;;12.85;9.02;;;512.90;1638.40;;;;;;5150586;27;20015;-73
2023/03/24 09:44:58;;;;;;;14.35;8.05;;;537.60;1638.40;;;;;;5145691;27;20076;-77
2023/03/24 09:47:41;;;;;;;13.30;7.72;;;537.80;1664.00;;;;;;5130046;27;20023;-77
2023/03/24 09:50:21;;;;;;;13.85;8.73;;;537.80;1612.80;;;;;;5148112;27;20023;-76
2023/03/24 09:52:50;;;;;;;16.77;9.68;;;537.90;1612.80;;;;;;5140963;27;20350;-77
2023/03/24 09:55:38;;;;;;;10.57;7.97;;;538.00;1587.20;;;;;;5142064;27;20015;-78
2023/03/24 09:58:08;;;;;;;10.88;7.40;;;538.10;1587.20;;;;;;5129444;27;20034;-78
2023/03/24 10:00:35;;;;;;;14.38;7.65;;;538.30;1561.60;;;;;;5137890;27;20055;-78
2023/03/24 10:03:21;;;;;;;34.25;11.88;;;538.40;1536.00;;;;;;5144767;27;20035;-77
2023/03/24 10:06:00;;;;;;;13.63;7.43;;;538.50;1536.00;;;;;;5112445;28;20032;-77
2023/03/24 10:08:29;;;;;;;11.45;7.40;;;563.30;1536.00;;;;;;5110716;27;20033;-77
2023/03/24 10:11:04;;;;;;;17.42;8.68;;;563.50;1484.80;;;;;;5129459;27;20027;-78
2023/03/24 10:13:55;;;;;;;15.10;7.38;;;563.60;1484.80;;;;;;5131763;27;20098;-78
2023/03/24 10:16:31;;;;;;;13.27;7.18;;;563.80;1459.20;;;;;;5131372;27;20065;-74
2023/03/24 10:19:38;;;;;;;12.77;7.60;;;563.90;1408.00;;;;;;5125681;27;20016;-74
2023/03/24 10:22:29;;;;;;;17.70;7.40;;;564.10;1382.40;;;;;;5114608;28;20015;-74
2023/03/24 10:25:01;;;;;;;8.95;6.15;;;589.00;1382.40;;;;;;5120844;28;20149;-75
2023/03/24 10:27:33;;;;;;;9.55;6.53;;;589.10;1356.80;;;;;;5119388;28;20028;-75
2023/03/24 10:30:17;;;;;;;11.23;7.38;;;589.20;1382.40;;;;;;5121547;28;20023;-75
2023/03/24 10:32:44;;;;;;;9.82;6.75;;;589.40;1356.80;;;;;;5095052;28;20127;-74
2023/03/24 10:35:34;;;;;;;11.52;6.38;;;589.60;1305.60;;;;;;5110048;28;20032;-74
2023/03/24 10:38:08;;;;;;;11.07;7.07;;;589.70;1331.20;;;;;;5106411;28;20473;-74
2023/03/24 10:40:33;;;;;;;16.98;6.88;;;614.50;1280.00;;;;;;5106644;28;20469;-75
2023/03/24 10:43:02;;;;;;;12.52;6.70;;;614.70;1254.40;;;;;;5102760;28;20047;-74
2023/03/24 10:45:32;;;;;;;9.63;6.72;;;614.90;1254.40;;;;;;5102490;28;20024;-75
2023/03/24 10:48:00;;;;;;;8.48;6.05;;;615.00;1254.40;;;;;;5105916;28;20182;-75
2023/03/24 10:50:28;;;;;;;18.15;7.38;;;615.10;1228.80;;;;;;5095718;28;20031;-74
2023/03/24 10:52:54;;;;;;;14.43;7.78;;;615.20;1280.00;;;;;;5106010;28;20036;-73
2023/03/24 10:55:28;;;;;;;9.07;5.80;;;615.20;1254.40;;;;;;5086336;28;20028;-75
2023/03/24 10:57:57;;;;;;;12.63;6.05;;;615.30;1203.20;;;;;;5098079;28;20059;-74
2023/03/24 11:00:31;;;;;;;10.23;6.38;;;615.30;1203.20;;;;;;5087308;28;20024;-74
2023/03/24 11:03:20;;;;;;;8.98;5.82;;;;;;;;;;5105539;28;20067;-74
2023/03/24 11:05:46;;;;;;;9.70;6.28;;;640.60;1126.40;;;;;;5046833;28;20048;-74
2023/03/24 11:08:30;;;;;;;10.65;7.20;;;640.80;1126.40;;;;;;5044524;28;20071;-75
2023/03/24 11:10:57;;;;;;;8.07;4.88;;;640.80;1126.40;;;;;;5043126;28;20037;-78
2023/03/24 11:13:23;;;;;;;9.30;6.13;;;640.90;1100.80;;;;;;5036595;28;20129;-78
2023/03/24 11:15:56;;;;;;;10.45;6.00;;;640.90;1126.40;;;;;;5034546;28;20024;-78
2023/03/24 11:18:22;;;;;;;14.43;5.78;;;665.60;1152.00;;;;;;5031282;28;20437;-76
2023/03/24 11:21:04;;;;;;;10.30;5.90;;;665.90;1100.80;;;;;;5023081;28;20022;-79
2023/03/24 11:23:38;;;;;;;8.70;6.35;;;666.00;1100.80;;;;;;5040400;28;20081;-78
2023/03/24 11:26:14;;;;;;;7.75;5.95;;;666.20;1100.80;;;;;;5027569;28;20056;-78
2023/03/24 11:28:52;;;;;;;12.57;5.43;;;665.90;1126.40;;;;;;5029222;28;20499;-77
2023/03/24 11:31:38;;;;;;;8.02;5.82;;;665.90;1126.40;;;;;;5043578;28;20035;-82
2023/03/24 11:34:18;;;;;;;13.15;5.72;;;666.00;1100.80;;;;;;5039870;28;20115;-76
2023/03/24 11:37:21;;;;;;;8.50;5.43;;;666.20;1100.80;;;;;;5034692;28;20029;-80
2023/03/24 11:40:13;;;;;;;9.82;4.97;;;666.50;1075.20;;;;;;5036576;28;20088;-79
2023/03/24 11:42:49;;;;;;;7.35;5.68;;;691.40;1024.00;;;;;;5049447;28;20063;-76
2023/03/24 11:45:28;;;;;;;10.02;5.30;;;691.30;998.40;;;;;;5106909;28;20027;-77
2023/03/24 11:47:58;;;;;;;6.22;4.57;;;691.40;998.40;;;;;;5097549;28;20103;-78
2023/03/24 11:50:30;;;;;;;11.60;5.05;;;691.60;972.80;;;;;;5109875;28;20039;-78
2023/03/24 11:53:41;;;;;;;14.80;5.80;;;691.70;972.80;;;;;;5105978;28;20031;-77
2023/03/24 11:56:21;;;;;;;7.75;4.95;;;691.80;972.80;;;;;;5099295;28;20028;-78
2023/03/24 11:58:53;;;;;;;8.93;5.22;;;691.70;972.80;;;;;;5101711;28;20031;-77
2023/03/24 12:01:21;;;;;;;10.23;5.15;;;691.80;972.80;;;;;;5100435;28;20103;-77
2023/03/24 12:04:04;;;;;;;7.28;4.85;;;691.90;947.20;;;;;;5116877;27;20047;-77
2023/03/24 12:06:48;;;;;;;14.68;5.63;;;691.90;947.20;;;;;;5098896;28;20092;-77
2023/03/24 12:09:31;;;;;;;10.90;5.55;;;691.90;972.80;;;;;;5103718;28;20036;-76
2023/03/24 12:12:03;;;;;;;10.40;5.30;;;691.60;1049.60;;;;;;5097340;28;20111;-76
2023/03/24 12:15:03;;;;;;;8.00;4.10;;;691.60;1024.00;;;;;;5103871;28;20032;-77
2023/03/24 12:17:59;;;;;;;6.95;4.97;;;666.50;1024.00;;;;;;5096840;28;20028;-77
2023/03/24 12:20:25;;;;;;;;;;;666.50;1024.00;;;;;;5096387;28;20036;-77
2023/03/24 12:23:08;;;;;;;6.70;4.22;;;666.40;1024.00;;;;;;5102546;28;20365;-79
2023/03/24 12:25:51;;;;;;;10.73;4.88;;;666.50;1024.00;;;;;;5099249;28;20032;-77
2023/03/24 12:28:38;;;;;;;9.68;4.40;;;691.20;1049.60;;;;;;5116520;27;20024;-78
2023/03/24 12:31:16;;;;;;;10.23;4.93;;;691.40;1024.00;;;;;;5102010;28;20036;-77
2023/03/24 12:34:01;;;;;;;7.68;4.30;;;691.60;1024.00;;;;;;5097997;28;20128;-78
2023/03/24 12:36:50;;;;;;;8.50;4.85;;;691.40;998.40;;;;;;5119201;27;20469;-77
2023/03/24 12:39:34;;;;;;;9.38;4.10;;;691.80;947.20;;;;;;5101997;28;20513;-78